createdAt,value
2019-03-08T00:00:09.147Z,65.20
2019-03-08T00:02:37.513Z,64.90
2019-03-08T00:05:07.168Z,64.90
2019-03-08T00:07:35.799Z,64.90
2019-03-08T00:10:04.545Z,64.70
2019-03-08T00:12:33.139Z,64.80
2019-03-08T00:15:01.509Z,64.80
2019-03-08T00:17:29.995Z,64.70
2019-03-08T00:19:58.378Z,64.70
2019-03-08T00:22:27.547Z,64.60
2019-03-08T00:24:55.893Z,64.60
2019-03-08T00:27:24.277Z,64.50
2019-03-08T00:29:52.641Z,64.50
2019-03-08T00:32:21.017Z,64.50
2019-03-08T00:34:49.508Z,64.40
2019-03-08T00:37:18.177Z,64.50
2019-03-08T00:39:46.541Z,64.40
2019-03-08T00:42:16.138Z,64.50
2019-03-08T00:44:44.540Z,64.30
2019-03-08T00:47:13.610Z,64.20
2019-03-08T00:49:42.229Z,64.20
2019-03-08T00:52:11.832Z,64.20
2019-03-08T00:54:40.756Z,64.20
2019-03-08T00:57:09.099Z,64.10
2019-03-08T00:59:38.446Z,64.00
2019-03-08T01:02:07.205Z,63.90
2019-03-08T01:04:35.560Z,63.90
2019-03-08T01:07:04.731Z,63.90
2019-03-08T01:09:33.096Z,63.90
2019-03-08T01:12:01.514Z,63.90
2019-03-08T01:14:30.187Z,63.80
2019-03-08T01:16:58.555Z,63.80
2019-03-08T01:19:29.090Z,63.80
2019-03-08T01:21:57.497Z,63.70
2019-03-08T01:24:25.939Z,63.70
2019-03-08T01:26:54.695Z,63.70
2019-03-08T01:29:23.087Z,63.60
2019-03-08T01:31:53.461Z,63.60
2019-03-08T01:34:21.945Z,63.50
2019-03-08T01:36:50.593Z,63.50
2019-03-08T01:39:19.047Z,63.50
2019-03-08T01:41:47.403Z,63.30
2019-03-08T01:44:15.783Z,63.10
2019-03-08T01:46:44.147Z,63.10
2019-03-08T01:49:12.542Z,63.10
2019-03-08T01:51:40.895Z,63.70
2019-03-08T01:54:10.186Z,63.00
2019-03-08T01:56:38.539Z,63.00
2019-03-08T01:59:06.929Z,63.00
2019-03-08T02:01:35.305Z,63.00
2019-03-08T02:04:03.669Z,62.80
2019-03-08T02:06:32.042Z,62.80
2019-03-08T02:09:00.458Z,62.70
2019-03-08T02:11:28.888Z,62.70
2019-03-08T02:13:57.293Z,62.70
2019-03-08T02:16:25.668Z,62.70
2019-03-08T02:18:54.055Z,62.70
2019-03-08T02:21:22.428Z,62.70
2019-03-08T02:23:50.874Z,63.40
2019-03-08T02:26:19.306Z,62.50
2019-03-08T02:28:47.676Z,62.60
2019-03-08T02:31:16.050Z,62.50
2019-03-08T02:33:44.414Z,62.50
2019-03-08T02:36:12.794Z,63.40
2019-03-08T02:38:41.247Z,62.50
2019-03-08T02:41:09.673Z,62.50
2019-03-08T02:43:38.149Z,62.50
2019-03-08T02:46:06.516Z,62.40
2019-03-08T02:48:35.003Z,62.40
2019-03-08T02:51:03.516Z,62.40
2019-03-08T02:53:31.860Z,62.40
2019-03-08T02:56:00.261Z,62.40
2019-03-08T02:58:28.557Z,62.50
2019-03-08T03:00:57.141Z,62.50
2019-03-08T03:03:25.506Z,62.40
2019-03-08T03:05:53.991Z,62.30
2019-03-08T03:08:22.363Z,62.30
2019-03-08T03:10:50.752Z,62.30
2019-03-08T03:13:19.115Z,62.30
2019-03-08T03:15:47.487Z,62.30
2019-03-08T03:18:15.957Z,62.30
2019-03-08T03:20:44.377Z,63.10
2019-03-08T03:23:12.800Z,62.20
2019-03-08T03:25:41.157Z,62.20
2019-03-08T03:28:09.547Z,62.20
2019-03-08T03:30:37.910Z,62.30
2019-03-08T03:33:06.288Z,62.20
2019-03-08T03:35:34.654Z,62.30
2019-03-08T03:38:03.037Z,62.20
2019-03-08T03:40:31.399Z,61.70
2019-03-08T03:42:59.774Z,62.10
2019-03-08T03:45:28.123Z,62.10
2019-03-08T03:47:56.534Z,62.10
2019-03-08T03:50:24.885Z,62.10
2019-03-08T03:52:53.285Z,62.10
2019-03-08T03:55:21.744Z,62.10
2019-03-08T03:57:50.104Z,62.10
2019-03-08T04:00:24.748Z,62.10
2019-03-08T04:02:53.566Z,62.10
2019-03-08T04:05:21.920Z,62.10
2019-03-08T04:07:50.287Z,62.10
2019-03-08T04:10:18.778Z,61.90
2019-03-08T04:12:47.167Z,61.90
2019-03-08T04:15:16.861Z,62.00
2019-03-08T04:17:45.617Z,62.10
2019-03-08T04:20:20.671Z,61.90
2019-03-08T04:22:49.177Z,62.00
2019-03-08T04:25:17.675Z,61.90
2019-03-08T04:27:46.168Z,61.90
2019-03-08T04:30:19.769Z,61.90
2019-03-08T04:32:48.169Z,61.90
2019-03-08T04:35:16.543Z,61.80
2019-03-08T04:37:44.902Z,61.90
2019-03-08T04:40:14.100Z,62.00
2019-03-08T04:42:42.460Z,61.80
2019-03-08T04:45:15.049Z,61.90
2019-03-08T04:47:43.406Z,61.80
2019-03-08T04:50:12.923Z,61.80
2019-03-08T04:52:41.277Z,61.80
2019-03-08T04:55:17.002Z,61.80
2019-03-08T04:57:46.007Z,61.80
2019-03-08T05:00:15.855Z,61.70
2019-03-08T05:02:44.226Z,61.70
2019-03-08T05:05:12.540Z,61.70
2019-03-08T05:07:40.888Z,61.70
2019-03-08T05:10:17.230Z,61.70
2019-03-08T05:12:45.583Z,61.70
2019-03-08T05:15:13.986Z,61.70
2019-03-08T05:17:42.411Z,61.80
2019-03-08T05:20:11.124Z,61.70
2019-03-08T05:22:39.498Z,61.70
2019-03-08T05:25:12.772Z,61.70
2019-03-08T05:27:41.133Z,61.60
2019-03-08T05:30:15.452Z,61.60
2019-03-08T05:32:43.834Z,61.40
2019-03-08T05:35:12.881Z,61.60
2019-03-08T05:37:41.237Z,61.60
2019-03-08T05:40:12.025Z,61.70
2019-03-08T05:42:40.403Z,61.60
2019-03-08T05:45:14.354Z,61.60
2019-03-08T05:47:42.892Z,61.60
2019-03-08T05:50:12.042Z,61.70
2019-03-08T05:52:40.977Z,61.80
2019-03-08T05:55:10.664Z,62.00
2019-03-08T05:57:39.103Z,62.20
2019-03-08T06:00:15.401Z,62.30
2019-03-08T06:02:44.289Z,62.50
2019-03-08T06:05:12.625Z,62.50
2019-03-08T06:07:41.176Z,62.70
2019-03-08T06:10:33.585Z,62.80
2019-03-08T06:13:03.396Z,62.80
2019-03-08T06:15:32.165Z,62.80
2019-03-08T06:18:00.600Z,62.90
2019-03-08T06:20:29.007Z,62.90
2019-03-08T06:22:57.931Z,63.00
2019-03-08T06:25:26.416Z,63.00
2019-03-08T06:27:54.782Z,63.00
2019-03-08T06:30:23.217Z,63.20
2019-03-08T06:32:51.880Z,63.20
2019-03-08T06:35:20.406Z,63.20
2019-03-08T06:37:48.692Z,63.20
2019-03-08T06:40:17.050Z,63.30
2019-03-08T06:42:45.560Z,63.50
2019-03-08T06:45:17.478Z,63.80
2019-03-08T06:47:46.141Z,64.00
2019-03-08T06:50:15.460Z,64.30
2019-03-08T06:52:43.861Z,64.50
2019-03-08T06:55:13.629Z,64.60
2019-03-08T06:57:41.988Z,64.80
2019-03-08T07:00:19.918Z,65.00
2019-03-08T07:02:48.275Z,65.00
2019-03-08T07:05:16.646Z,65.10
2019-03-08T07:07:45.093Z,65.30
2019-03-08T07:10:30.055Z,65.30
2019-03-08T07:13:02.863Z,65.30
2019-03-08T07:15:30.895Z,65.40
2019-03-08T07:18:11.767Z,65.50
2019-03-08T07:20:53.763Z,65.50
2019-03-08T07:23:27.975Z,65.60
2019-03-08T07:26:01.318Z,65.60
2019-03-08T07:28:35.680Z,65.70
2019-03-08T07:31:11.623Z,65.70
2019-03-08T07:33:53.223Z,65.90
2019-03-08T07:36:30.976Z,66.10
2019-03-08T07:39:26.987Z,66.00
2019-03-08T07:42:09.962Z,66.10
2019-03-08T07:44:52.255Z,66.20
2019-03-08T07:47:29.351Z,66.40
2019-03-08T07:50:12.192Z,66.40
2019-03-08T07:53:04.186Z,67.40
2019-03-08T07:55:46.628Z,66.60
2019-03-08T07:58:25.772Z,66.60
2019-03-08T08:01:02.688Z,66.80
2019-03-08T08:03:49.022Z,66.80
2019-03-08T08:06:18.562Z,66.90
2019-03-08T08:08:54.972Z,66.90
2019-03-08T08:11:43.352Z,67.00
2019-03-08T08:14:16.276Z,67.10
2019-03-08T08:16:59.556Z,67.10
2019-03-08T08:19:47.264Z,67.10
2019-03-08T08:22:24.622Z,66.50
2019-03-08T08:24:57.664Z,63.70
2019-03-08T08:27:32.298Z,62.10
2019-03-08T08:33:01.393Z,61.60
2019-03-08T08:35:43.985Z,61.40
2019-03-08T08:38:20.256Z,60.90
2019-03-08T08:40:59.837Z,60.50
2019-03-08T08:43:39.881Z,60.00
2019-03-08T08:46:26.566Z,59.80
2019-03-08T08:48:57.005Z,59.90
2019-03-08T08:51:45.147Z,60.30
2019-03-08T08:54:26.451Z,60.40
2019-03-08T08:57:07.688Z,60.50
2019-03-08T08:59:40.957Z,60.80
2019-03-08T09:02:11.360Z,61.00
2019-03-08T09:04:44.195Z,61.10
2019-03-08T09:07:17.652Z,61.30
2019-03-08T09:09:57.485Z,61.50
2019-03-08T09:12:27.675Z,61.50
2019-03-08T09:14:57.742Z,61.70
2019-03-08T09:17:28.071Z,61.00
2019-03-08T09:20:11.476Z,61.80
2019-03-08T09:22:44.942Z,61.90
2019-03-08T09:25:17.914Z,62.00
2019-03-08T09:27:48.242Z,62.00
2019-03-08T09:30:34.781Z,62.10
2019-03-08T09:33:07.806Z,62.00
2019-03-08T09:35:41.487Z,62.20
2019-03-08T09:38:24.240Z,62.10
2019-03-08T09:41:10.695Z,62.20
2019-03-08T09:43:52.986Z,62.10
2019-03-08T09:46:31.587Z,62.00
2019-03-08T09:49:17.915Z,62.10
2019-03-08T09:51:57.075Z,62.10
2019-03-08T09:54:34.014Z,62.10
2019-03-08T09:57:04.528Z,62.10
2019-03-08T09:59:34.582Z,61.60
2019-03-08T10:02:04.841Z,62.30
2019-03-08T10:04:53.448Z,62.30
2019-03-08T10:07:26.327Z,62.20
2019-03-08T10:10:11.715Z,62.10
2019-03-08T10:12:47.484Z,62.20
2019-03-08T10:15:34.256Z,62.10
2019-03-08T10:18:04.673Z,62.00
2019-03-08T10:20:40.704Z,61.90
2019-03-08T10:23:25.879Z,62.10
2019-03-08T10:25:56.723Z,62.10
2019-03-08T10:28:33.204Z,61.90
2019-03-08T10:31:15.209Z,62.00
2019-03-08T10:33:46.769Z,62.00
2019-03-08T10:36:26.839Z,62.00
2019-03-08T10:39:02.760Z,62.00
2019-03-08T10:41:32.781Z,61.90
2019-03-08T10:44:11.796Z,61.90
2019-03-08T10:46:44.160Z,61.80
2019-03-08T10:49:17.335Z,61.80
2019-03-08T10:52:05.747Z,61.90
2019-03-08T10:54:36.228Z,61.80
2019-03-08T10:57:09.054Z,61.90
2019-03-08T10:59:48.631Z,61.70
2019-03-08T11:02:22.136Z,61.70
2019-03-08T11:04:52.178Z,61.70
2019-03-08T11:07:28.953Z,61.50
2019-03-08T11:10:04.660Z,61.50
2019-03-08T11:12:51.274Z,61.50
2019-03-08T11:15:24.454Z,61.40
2019-03-08T11:18:00.350Z,61.30
2019-03-08T11:20:36.954Z,61.30
2019-03-08T11:23:13.350Z,61.20
2019-03-08T11:25:52.832Z,61.10
2019-03-08T11:28:25.630Z,61.00
2019-03-08T11:31:01.579Z,60.90
2019-03-08T11:33:50.903Z,60.90
2019-03-08T11:36:24.703Z,60.90
2019-03-08T11:39:06.779Z,60.80
2019-03-08T11:41:36.837Z,60.70
2019-03-08T11:44:23.441Z,60.60
2019-03-08T11:47:10.613Z,60.60
2019-03-08T11:49:42.490Z,60.50
2019-03-08T11:52:31.264Z,60.50
2019-03-08T11:55:18.559Z,60.30
2019-03-08T11:58:08.256Z,60.30
2019-03-08T12:00:40.487Z,60.30
2019-03-08T12:03:27.819Z,60.30
2019-03-08T12:05:58.402Z,60.30
2019-03-08T12:08:36.848Z,60.20
2019-03-08T12:11:25.934Z,60.20
2019-03-08T12:14:05.706Z,60.20
2019-03-08T12:16:39.360Z,60.20
2019-03-08T12:19:14.554Z,60.10
2019-03-08T12:21:57.734Z,60.10
2019-03-08T12:24:27.934Z,60.20
2019-03-08T12:26:58.698Z,60.10
2019-03-08T12:29:45.688Z,60.10
2019-03-08T12:32:31.272Z,60.30
2019-03-08T12:35:16.295Z,60.10
2019-03-08T12:37:55.344Z,60.30
2019-03-08T12:40:31.951Z,60.20
2019-03-08T12:43:08.541Z,60.20
2019-03-08T12:45:56.670Z,60.20
2019-03-08T12:48:45.615Z,60.20
2019-03-08T12:51:33.901Z,60.20
2019-03-08T12:54:07.668Z,60.20
2019-03-08T12:56:38.002Z,60.20
2019-03-08T12:59:08.235Z,60.20
2019-03-08T13:01:47.327Z,60.40
2019-03-08T13:04:17.671Z,60.70
2019-03-08T13:07:05.625Z,61.20
2019-03-08T13:09:49.070Z,60.40
2019-03-08T13:12:17.776Z,60.40
2019-03-08T13:14:46.365Z,60.40
2019-03-08T13:17:14.767Z,60.50
2019-03-08T13:19:43.177Z,60.40
2019-03-08T13:22:12.335Z,60.40
2019-03-08T13:24:40.946Z,60.40
2019-03-08T13:27:10.504Z,60.50
2019-03-08T13:29:39.168Z,60.50
2019-03-08T13:32:08.311Z,60.50
2019-03-08T13:34:36.908Z,60.50
2019-03-08T13:37:05.423Z,60.50
2019-03-08T13:39:33.851Z,60.50
2019-03-08T13:42:03.012Z,60.50
2019-03-08T13:44:31.428Z,60.50
2019-03-08T13:47:01.663Z,60.60
2019-03-08T13:49:30.181Z,60.50
2019-03-08T13:51:58.632Z,60.40
2019-03-08T13:54:29.828Z,60.00
2019-03-08T13:56:58.175Z,59.90
2019-03-08T13:59:26.607Z,59.80
2019-03-08T14:01:55.484Z,59.70
2019-03-08T14:04:23.812Z,59.70
2019-03-08T14:06:52.376Z,59.70
2019-03-08T14:09:20.940Z,59.70
2019-03-08T14:11:50.976Z,59.60
2019-03-08T14:14:20.050Z,60.40
2019-03-08T14:16:49.866Z,59.60
2019-03-08T14:19:18.527Z,59.60
2019-03-08T14:21:47.011Z,59.60
2019-03-08T14:24:15.419Z,59.60
2019-03-08T14:26:43.976Z,59.60
2019-03-08T14:29:12.582Z,59.60
2019-03-08T14:31:49.362Z,59.70
2019-03-08T14:34:18.698Z,59.70
2019-03-08T14:36:47.411Z,59.70
2019-03-08T14:39:15.842Z,59.60
2019-03-08T14:41:45.989Z,59.60
2019-03-08T14:44:22.768Z,59.70
2019-03-08T14:46:56.505Z,59.60
2019-03-08T14:49:26.026Z,59.60
2019-03-08T14:51:54.463Z,59.60
2019-03-08T14:54:24.811Z,59.60
2019-03-08T14:56:53.195Z,59.60
2019-03-08T14:59:21.659Z,59.60
2019-03-08T15:01:50.983Z,59.50
2019-03-08T15:04:19.679Z,59.60
2019-03-08T15:06:48.606Z,59.60
2019-03-08T15:09:17.302Z,59.50
2019-03-08T15:11:45.754Z,59.50
2019-03-08T15:14:14.214Z,59.50
2019-03-08T15:16:49.541Z,59.40
2019-03-08T15:19:19.086Z,59.40
2019-03-08T15:21:48.688Z,59.40
2019-03-08T15:24:17.416Z,59.40
2019-03-08T15:26:45.847Z,59.50
2019-03-08T15:29:14.484Z,59.50
2019-03-08T15:31:48.547Z,59.50
2019-03-08T15:34:21.313Z,59.50
2019-03-08T15:36:46.946Z,59.40
2019-03-08T15:39:15.457Z,59.50
2019-03-08T15:41:43.846Z,59.50
2019-03-08T15:44:12.236Z,59.50
2019-03-08T15:46:40.907Z,59.50
2019-03-08T15:49:09.480Z,59.50
2019-03-08T15:51:37.843Z,59.50
2019-03-08T15:54:06.198Z,59.50
2019-03-08T15:56:34.865Z,59.50
2019-03-08T15:59:03.452Z,59.50
2019-03-08T16:01:32.673Z,59.50
2019-03-08T16:04:01.699Z,59.50
2019-03-08T16:06:31.927Z,59.50
2019-03-08T16:09:14.915Z,59.50
2019-03-08T16:11:43.268Z,59.50
2019-03-08T16:14:12.203Z,59.50
2019-03-08T16:16:40.659Z,59.50
2019-03-08T16:19:09.877Z,59.50
2019-03-08T16:21:38.541Z,59.40
2019-03-08T16:24:07.037Z,59.50
2019-03-08T16:26:37.163Z,59.40
2019-03-08T16:29:05.598Z,59.40
2019-03-08T16:31:36.003Z,59.40
2019-03-08T16:34:06.567Z,59.40
2019-03-08T16:36:36.946Z,59.40
2019-03-08T16:39:12.502Z,59.40
2019-03-08T16:42:02.186Z,59.40
2019-03-08T16:44:32.220Z,59.40
2019-03-08T16:47:12.337Z,59.40
2019-03-08T16:49:44.179Z,59.40
2019-03-08T16:52:14.521Z,59.40
2019-03-08T16:54:47.246Z,59.40
2019-03-08T16:57:17.226Z,59.50
2019-03-08T17:00:04.696Z,59.50
2019-03-08T17:02:51.265Z,59.50
2019-03-08T17:05:36.792Z,59.50
2019-03-08T17:08:19.607Z,59.60
2019-03-08T17:10:59.558Z,59.50
2019-03-08T17:13:46.225Z,59.50
2019-03-08T17:16:34.949Z,60.10
2019-03-08T17:19:11.730Z,59.50
2019-03-08T17:21:48.478Z,59.50
2019-03-08T17:24:28.068Z,59.50
2019-03-08T17:26:58.843Z,59.50
2019-03-08T17:29:29.615Z,59.50
2019-03-08T17:32:12.117Z,59.50
2019-03-08T17:34:54.811Z,59.50
2019-03-08T17:37:27.616Z,59.60
2019-03-08T17:40:09.977Z,59.50
2019-03-08T17:42:45.772Z,59.50
2019-03-08T17:45:15.799Z,59.50
2019-03-08T17:47:58.133Z,59.50
2019-03-08T17:50:36.855Z,59.50
2019-03-08T17:53:18.914Z,59.30
2019-03-08T17:56:04.493Z,59.30
2019-03-08T17:58:37.214Z,59.30
2019-03-08T18:01:22.479Z,59.20
2019-03-08T18:04:10.828Z,59.20
2019-03-08T18:06:49.683Z,59.20
2019-03-08T18:09:20.090Z,59.20
2019-03-08T18:11:50.198Z,59.20
2019-03-08T18:14:20.200Z,59.20
2019-03-08T18:17:08.577Z,59.30
2019-03-08T18:19:44.281Z,59.30
2019-03-08T18:22:29.317Z,59.30
2019-03-08T18:24:59.323Z,59.30
2019-03-08T18:27:29.782Z,59.30
2019-03-08T18:30:15.102Z,59.30
2019-03-08T18:32:45.157Z,59.40
2019-03-08T18:35:18.668Z,59.50
2019-03-08T18:37:48.700Z,59.50
2019-03-08T18:40:18.680Z,59.60
2019-03-08T18:42:57.762Z,59.60
2019-03-08T18:45:27.750Z,59.60
2019-03-08T18:47:57.788Z,59.50
2019-03-08T18:50:36.776Z,59.50
2019-03-08T18:53:15.866Z,59.40
2019-03-08T18:55:46.168Z,59.30
2019-03-08T18:58:16.187Z,59.20
2019-03-08T19:00:49.090Z,59.20
2019-03-08T19:03:21.967Z,59.20
2019-03-08T19:05:52.056Z,59.20
2019-03-08T19:08:22.064Z,59.10
2019-03-08T19:11:06.791Z,59.20
2019-03-08T19:13:36.795Z,59.20
2019-03-08T19:16:07.170Z,59.20
2019-03-08T19:18:39.635Z,59.20
2019-03-08T19:21:11.660Z,59.10
2019-03-08T19:23:44.851Z,59.10
2019-03-08T19:26:23.879Z,59.10
2019-03-08T19:28:53.980Z,59.20
2019-03-08T19:31:26.779Z,59.20
2019-03-08T19:34:03.254Z,59.20
2019-03-08T19:36:46.383Z,59.30
2019-03-08T19:39:22.031Z,59.80
2019-03-08T19:41:55.773Z,59.30
2019-03-08T19:44:29.841Z,59.30
2019-03-08T19:47:01.190Z,59.30
2019-03-08T19:49:47.509Z,59.30
2019-03-08T19:52:23.685Z,59.30
2019-03-08T19:54:53.820Z,59.80
2019-03-08T19:57:38.912Z,59.30
2019-03-08T20:00:23.759Z,59.30
2019-03-08T20:02:53.952Z,59.20
2019-03-08T20:05:29.711Z,59.20
2019-03-08T20:07:59.747Z,59.20
2019-03-08T20:10:29.912Z,59.30
2019-03-08T20:13:11.925Z,59.20
2019-03-08T20:15:58.279Z,59.30
2019-03-08T20:18:28.313Z,59.30
2019-03-08T20:21:14.812Z,59.40
2019-03-08T20:23:47.593Z,59.40
2019-03-08T20:26:34.160Z,59.50
2019-03-08T20:29:20.719Z,59.50
2019-03-08T20:32:09.211Z,59.60
2019-03-08T20:34:39.157Z,59.60
2019-03-08T20:37:14.951Z,59.60
2019-03-08T20:40:06.941Z,59.70
2019-03-08T20:42:36.951Z,59.70
2019-03-08T20:45:09.142Z,59.70
2019-03-08T20:47:37.548Z,59.80
2019-03-08T20:50:09.405Z,59.90
2019-03-08T20:52:37.769Z,59.90
2019-03-08T20:55:08.679Z,60.00
2019-03-08T20:57:37.037Z,60.20
2019-03-08T21:00:12.321Z,60.30
2019-03-08T21:02:40.737Z,60.30
2019-03-08T21:05:10.574Z,60.40
2019-03-08T21:07:39.105Z,60.30
2019-03-08T21:10:12.399Z,60.30
2019-03-08T21:12:40.755Z,60.40
2019-03-08T21:15:11.461Z,60.50
2019-03-08T21:17:39.849Z,60.50
2019-03-08T21:20:12.813Z,60.50
2019-03-08T21:22:41.355Z,60.50
2019-03-08T21:25:16.627Z,60.50
2019-03-08T21:27:45.157Z,60.50
2019-03-08T21:30:20.379Z,60.50
2019-03-08T21:32:48.751Z,60.80
2019-03-08T21:35:17.184Z,61.60
2019-03-08T21:37:45.777Z,61.00
2019-03-08T21:40:14.623Z,60.90
2019-03-08T21:42:43.175Z,60.80
2019-03-08T21:45:15.485Z,60.80
2019-03-08T21:47:43.903Z,60.80
2019-03-08T21:50:14.587Z,60.40
2019-03-08T21:52:43.548Z,60.70
2019-03-08T21:55:12.081Z,60.60
2019-03-08T21:57:40.559Z,60.50
2019-03-08T22:00:21.100Z,60.50
2019-03-08T22:02:49.403Z,60.50
2019-03-08T22:05:21.751Z,60.40
2019-03-08T22:07:50.488Z,60.50
2019-03-08T22:10:29.792Z,60.30
2019-03-08T22:12:58.156Z,60.20
2019-03-08T22:15:26.669Z,60.00
2019-03-08T22:17:54.997Z,60.00
2019-03-08T22:20:23.545Z,59.90
2019-03-08T22:22:52.062Z,59.90
2019-03-08T22:25:22.275Z,59.90
2019-03-08T22:27:50.809Z,59.90
2019-03-08T22:30:20.529Z,60.00
2019-03-08T22:32:48.903Z,60.10
2019-03-08T22:35:17.285Z,60.10
2019-03-08T22:37:45.651Z,60.00
2019-03-08T22:40:13.977Z,60.10
2019-03-08T22:42:42.363Z,60.00
2019-03-08T22:45:11.784Z,60.00
2019-03-08T22:47:40.156Z,60.10
2019-03-08T22:50:13.151Z,60.20
2019-03-08T22:52:41.537Z,60.20
2019-03-08T22:55:14.212Z,60.20
2019-03-08T22:57:42.710Z,60.20
2019-03-08T23:00:14.500Z,60.20
2019-03-08T23:02:42.870Z,60.20
2019-03-08T23:05:11.316Z,60.30
2019-03-08T23:07:39.758Z,60.50
2019-03-08T23:10:12.024Z,60.50
2019-03-08T23:12:40.520Z,60.60
2019-03-08T23:15:09.439Z,60.80
2019-03-08T23:17:38.698Z,60.80
2019-03-08T23:20:08.662Z,60.80
2019-03-08T23:22:38.433Z,60.70
2019-03-08T23:25:06.906Z,60.80
2019-03-08T23:27:48.889Z,60.80
2019-03-08T23:30:18.934Z,61.00
2019-03-08T23:32:48.072Z,61.00
2019-03-08T23:35:16.600Z,61.10
2019-03-08T23:37:44.942Z,61.10
2019-03-08T23:40:13.619Z,61.10
2019-03-08T23:42:42.005Z,61.20
2019-03-08T23:45:11.250Z,61.10
2019-03-08T23:47:39.888Z,61.10
2019-03-08T23:50:09.193Z,61.20
2019-03-08T23:52:37.813Z,61.20
2019-03-08T23:55:09.887Z,61.20
2019-03-08T23:57:39.004Z,61.30
